Airfield :
LOGIN :

Register | Disclaimer

   EN    FR    IT 

 










Legend :    VFR   Marginal VFR   IFR   Intensive IFR   Very Intensive IFR
Visi :
Ceiling :
>= 8 km
>= 3000ft
5 to 8 km
1000 to 3000 ft
1500m to 5 km
500 to 1000 ft
800 to 1500m
200 to 500 ft
< 800m
< 200 ft
Symbols :   Thunderstorms  Fog  Heavy snow  Heavy precipitations  Wind > 20 kt
SIGMETs :     Misc.  Thunderstorms  Icing  Turbulence  Mountain Waves  Volcanic Ashes






- Airport Elevation : 194 ft


EBCV - Chièvres

CURRENT METAR :
  • 090903Z AUTO 25007KT 9999 -DZ BKN011/// BKN022/// 06/06 Q1000 GRN

EXPIRED METARs :
  • 090825Z AUTO 22010KT 9999 FEW025/// BKN028/// BKN097/// 06/05 Q0998 BLU
  • 090755Z AUTO 22013KT 9999 -RA FEW023/// OVC030/// 07/05 Q0998 BLU
  • 090725Z AUTO 22012KT 9999 FEW014/// OVC028/// 07/05 Q0997 BLU
  • 090655Z AUTO 22013KT 9999 OVC033/// 07/04 Q0997 BLU

TAF TAF EBCV
Valid from the 09 at 10:00 until the 09 at 19:00 UTC


090841Z 0910/0919 24015G25KT 9999 SCT018 SCT025
TEMPO 0910/0918 24022G35KT 4000 -SHRA SCT012TCU BKN020
TEMPO 0910/0915 24022G45KT 2000 SHRA SCT006 BKN010TCU OVC020 BY EBWM



MET'MAP, your aeronautical weather chart ! - Copyright ORBIFLY December 2007 - Disclaimer

ORBIFLY MET'MAP TEAM :

Programming & Development : Alexandra Zaïnal
Concept & original design : Baudouin d'Aumeries
Assistance for programming : Marc-Olivier Méhu
Technical & hardware support : Manuel Goepfert

Contact : metmap@orbifly.com




SOURCES & CREDITS :

   NOAA